createdAt,value
2023-01-06T00:00:45.789Z,301.90
2023-01-06T00:03:35.180Z,299.92
2023-01-06T00:06:28.446Z,317.25
2023-01-06T00:09:18.147Z,330.52
2023-01-06T00:12:09.571Z,331.33
2023-01-06T00:14:59.441Z,340.70
2023-01-06T00:17:49.163Z,329.20
2023-01-06T00:20:38.986Z,349.45
2023-01-06T00:23:28.654Z,323.25
2023-01-06T00:26:18.301Z,329.30
2023-01-06T00:29:11.082Z,347.08
2023-01-06T00:32:02.088Z,339.90
2023-01-06T00:34:52.086Z,332.33
2023-01-06T00:37:41.472Z,325.55
2023-01-06T00:40:30.962Z,351.08
2023-01-06T00:43:21.674Z,329.17
2023-01-06T00:46:11.336Z,337.35
2023-01-06T00:49:06.239Z,326.98
2023-01-06T00:51:56.723Z,357.33
2023-01-06T00:54:46.501Z,370.65
2023-01-06T00:57:36.985Z,350.35
2023-01-06T01:00:26.490Z,341.65
2023-01-06T01:03:16.012Z,356.58
2023-01-06T01:06:07.944Z,356.02
2023-01-06T01:08:59.817Z,353.77
2023-01-06T01:12:08.269Z,354.67
2023-01-06T01:14:58.250Z,350.90
2023-01-06T01:17:47.865Z,312.88
2023-01-06T01:20:38.840Z,335.52
2023-01-06T01:23:28.586Z,364.45
2023-01-06T01:25:59.236Z,383.30
2023-01-06T01:28:28.307Z,350.98
2023-01-06T01:31:01.856Z,379.75
2023-01-06T01:33:31.882Z,343.75
2023-01-06T01:36:08.675Z,394.77
2023-01-06T01:38:38.650Z,377.95
2023-01-06T01:41:08.578Z,372.55
2023-01-06T01:43:48.505Z,379.50
2023-01-06T01:46:43.798Z,408.90
2023-01-06T01:49:24.903Z,411.95
2023-01-06T01:51:57.651Z,389.52
2023-01-06T01:54:31.102Z,460.02
2023-01-06T01:57:08.020Z,431.30
2023-01-06T01:59:40.832Z,421.48
2023-01-06T02:02:10.691Z,433.20
2023-01-06T02:04:45.042Z,419.17
2023-01-06T02:07:14.548Z,450.73
2023-01-06T02:09:53.393Z,403.23
2023-01-06T02:12:22.879Z,394.73
2023-01-06T02:14:52.018Z,369.10
2023-01-06T02:17:24.295Z,382.40
2023-01-06T02:20:05.885Z,400.55
2023-01-06T02:22:35.386Z,417.77
2023-01-06T02:25:40.391Z,397.55
2023-01-06T02:28:31.462Z,453.63
2023-01-06T02:31:20.718Z,447.50
2023-01-06T02:34:25.348Z,392.38
2023-01-06T02:37:08.397Z,398.98
2023-01-06T02:40:01.909Z,451.50
2023-01-06T02:42:35.590Z,430.73
2023-01-06T02:45:25.814Z,430.37
2023-01-06T02:48:02.464Z,404.08
2023-01-06T02:50:55.483Z,408.17
2023-01-06T02:53:37.106Z,391.15
2023-01-06T02:56:07.319Z,409.33
2023-01-06T02:58:51.569Z,409.42
2023-01-06T03:01:30.413Z,416.42
2023-01-06T03:04:03.730Z,396.67
2023-01-06T03:06:36.390Z,392.77
2023-01-06T03:11:45.530Z,345.55
2023-01-06T03:14:37.605Z,389.60
2023-01-06T03:17:07.144Z,360.27
2023-01-06T03:19:36.774Z,370.77
2023-01-06T03:22:09.957Z,377.98
2023-01-06T03:27:11.356Z,350.48
2023-01-06T03:29:42.745Z,292.73
2023-01-06T03:32:28.363Z,284.73
2023-01-06T03:35:32.651Z,297.05
2023-01-06T03:38:10.710Z,272.85
2023-01-06T03:40:54.537Z,285.98
2023-01-06T03:43:36.177Z,312.38
2023-01-06T03:46:24.533Z,295.98
2023-01-06T03:48:59.660Z,315.15
2023-01-06T03:51:35.727Z,348.58
2023-01-06T03:54:26.956Z,298.20
2023-01-06T03:57:29.673Z,291.30
2023-01-06T04:00:16.135Z,326.38
2023-01-06T04:02:53.549Z,259.38
2023-01-06T04:05:28.451Z,252.63
2023-01-06T04:07:59.876Z,252.00
2023-01-06T04:10:29.856Z,244.63
2023-01-06T04:13:00.748Z,218.70
2023-01-06T04:15:35.041Z,225.88
2023-01-06T04:18:08.355Z,215.98
2023-01-06T04:20:40.615Z,237.05
2023-01-06T04:23:27.087Z,197.27
2023-01-06T04:25:56.360Z,224.90
2023-01-06T04:28:33.329Z,238.60
2023-01-06T04:31:05.842Z,241.65
2023-01-06T04:33:37.576Z,249.40
2023-01-06T04:36:09.967Z,255.18
2023-01-06T04:38:42.537Z,252.27
2023-01-06T04:41:11.633Z,232.52
2023-01-06T04:43:40.680Z,241.70
2023-01-06T04:46:10.286Z,267.98
2023-01-06T04:48:39.634Z,246.57
2023-01-06T04:51:10.971Z,241.05
2023-01-06T04:53:42.299Z,220.27
2023-01-06T04:56:13.704Z,242.85
2023-01-06T04:58:42.927Z,245.48
2023-01-06T05:01:14.571Z,226.60
2023-01-06T05:03:44.243Z,223.88
2023-01-06T05:06:13.979Z,218.68
2023-01-06T05:08:44.327Z,208.85
2023-01-06T05:11:19.500Z,219.18
2023-01-06T05:13:49.194Z,208.50
2023-01-06T05:16:33.458Z,206.80
2023-01-06T05:19:03.627Z,218.32
2023-01-06T05:21:33.086Z,202.18
2023-01-06T05:24:02.760Z,234.05
2023-01-06T05:26:33.103Z,230.00
2023-01-06T05:29:02.566Z,242.32
2023-01-06T05:31:31.914Z,218.13
2023-01-06T05:34:01.158Z,205.23
2023-01-06T05:36:30.311Z,196.68
2023-01-06T05:38:59.485Z,188.48
2023-01-06T05:41:28.564Z,180.07
2023-01-06T05:43:59.258Z,195.02
2023-01-06T05:46:28.644Z,188.55
2023-01-06T05:48:57.690Z,189.88
2023-01-06T05:51:26.761Z,207.85
2023-01-06T05:53:55.621Z,172.68
2023-01-06T05:56:25.851Z,193.48
2023-01-06T05:58:55.973Z,176.85
2023-01-06T06:01:27.301Z,188.43
2023-01-06T06:03:56.962Z,232.05
2023-01-06T06:06:27.971Z,178.35
2023-01-06T06:08:57.453Z,186.15
2023-01-06T06:11:26.702Z,185.27
2023-01-06T06:13:57.986Z,170.27
2023-01-06T06:16:29.827Z,192.20
2023-01-06T06:19:00.523Z,180.52
2023-01-06T06:21:32.753Z,156.68
2023-01-06T06:24:02.092Z,162.00
2023-01-06T06:26:31.518Z,166.82
2023-01-06T06:29:01.145Z,162.50
2023-01-06T06:31:31.615Z,163.85
2023-01-06T06:34:03.103Z,160.18
2023-01-06T06:36:34.158Z,165.18
2023-01-06T06:39:03.672Z,164.43
2023-01-06T06:41:32.935Z,142.43
2023-01-06T06:44:05.169Z,162.32
2023-01-06T06:46:34.806Z,163.07
2023-01-06T06:49:04.183Z,158.55
2023-01-06T06:51:33.358Z,150.20
2023-01-06T06:54:02.833Z,149.23
2023-01-06T06:56:31.920Z,164.35
2023-01-06T06:59:01.044Z,157.63
2023-01-06T07:01:32.791Z,152.35
2023-01-06T07:04:01.935Z,153.93
2023-01-06T07:06:30.986Z,167.43
2023-01-06T07:09:00.479Z,167.73
2023-01-06T07:11:30.211Z,160.18
2023-01-06T07:13:59.570Z,161.43
2023-01-06T07:16:28.457Z,170.43
2023-01-06T07:18:57.807Z,213.82
2023-01-06T07:21:27.200Z,175.73
2023-01-06T07:23:56.905Z,161.05
2023-01-06T07:26:26.569Z,166.65
2023-01-06T07:28:55.700Z,165.90
2023-01-06T07:31:25.010Z,154.32
2023-01-06T07:33:55.029Z,163.38
2023-01-06T07:36:24.375Z,165.60
2023-01-06T07:38:54.358Z,189.02
2023-01-06T07:41:23.440Z,157.65
2023-01-06T07:43:53.091Z,178.07
2023-01-06T07:46:22.692Z,174.75
2023-01-06T07:48:52.358Z,177.07
2023-01-06T07:51:21.745Z,173.55
2023-01-06T07:53:51.100Z,174.90
2023-01-06T07:56:20.486Z,165.85
2023-01-06T07:58:49.842Z,188.13
2023-01-06T08:01:19.153Z,173.10
2023-01-06T08:03:48.139Z,185.40
2023-01-06T08:06:17.608Z,192.00
2023-01-06T08:08:46.494Z,170.77
2023-01-06T08:11:16.064Z,176.75
2023-01-06T08:13:45.286Z,177.38
2023-01-06T08:16:15.026Z,223.93
2023-01-06T08:18:44.404Z,214.05
2023-01-06T08:21:13.625Z,181.52
2023-01-06T08:23:42.885Z,193.93
2023-01-06T08:26:17.435Z,194.10
2023-01-06T08:28:48.181Z,213.95
2023-01-06T08:31:21.088Z,221.05
2023-01-06T08:33:52.835Z,206.00
2023-01-06T08:36:24.987Z,216.88
2023-01-06T08:38:54.052Z,361.17
2023-01-06T08:41:23.699Z,222.48
2023-01-06T08:43:53.073Z,212.00
2023-01-06T08:46:22.353Z,195.73
2023-01-06T08:48:51.711Z,223.63
2023-01-06T08:51:24.730Z,195.82
2023-01-06T08:53:54.529Z,203.90
2023-01-06T08:56:27.912Z,231.88
2023-01-06T08:59:00.824Z,206.75
2023-01-06T09:01:36.290Z,187.23
2023-01-06T09:04:07.999Z,209.70
2023-01-06T09:06:38.097Z,203.23
2023-01-06T09:09:09.058Z,210.15
2023-01-06T09:11:39.062Z,202.00
2023-01-06T09:14:09.980Z,239.13
2023-01-06T09:16:42.509Z,213.45
2023-01-06T09:19:11.918Z,215.65
2023-01-06T09:21:43.819Z,207.40
2023-01-06T09:24:17.108Z,204.10
2023-01-06T09:26:46.508Z,226.60
2023-01-06T09:29:15.820Z,225.23
2023-01-06T09:31:45.274Z,225.13
2023-01-06T09:34:14.675Z,216.52
2023-01-06T09:36:43.707Z,213.30
2023-01-06T09:39:13.256Z,226.68
2023-01-06T09:41:46.538Z,215.02
2023-01-06T09:44:33.317Z,209.93
2023-01-06T09:47:04.468Z,213.98
2023-01-06T09:50:03.615Z,228.00
2023-01-06T09:53:05.134Z,214.65
2023-01-06T09:55:59.015Z,205.88
2023-01-06T09:58:35.993Z,218.15
2023-01-06T10:01:14.764Z,188.95
2023-01-06T10:03:48.957Z,215.38
2023-01-06T10:06:39.158Z,206.45
2023-01-06T10:09:45.093Z,215.82
2023-01-06T10:12:29.384Z,203.82
2023-01-06T10:15:02.253Z,230.35
2023-01-06T10:20:21.778Z,198.88
2023-01-06T10:22:58.117Z,197.98
2023-01-06T10:25:34.895Z,214.45
2023-01-06T10:28:30.630Z,212.82
2023-01-06T10:31:12.462Z,301.75
2023-01-06T10:33:51.611Z,207.65
2023-01-06T10:36:34.384Z,211.95
2023-01-06T10:39:08.205Z,213.35
2023-01-06T10:41:45.936Z,217.65
2023-01-06T10:44:16.071Z,209.52
2023-01-06T10:46:48.095Z,213.88
2023-01-06T10:49:20.212Z,207.97
2023-01-06T10:52:00.533Z,202.38
2023-01-06T10:54:37.717Z,200.40
2023-01-06T10:57:18.526Z,228.85
2023-01-06T11:00:10.969Z,226.23
2023-01-06T11:03:19.449Z,213.07
2023-01-06T11:06:04.534Z,201.00
2023-01-06T11:08:34.641Z,211.18
2023-01-06T11:11:27.256Z,230.85
2023-01-06T11:14:05.962Z,247.55
2023-01-06T11:16:38.632Z,236.23
2023-01-06T11:19:22.936Z,229.82
2023-01-06T11:21:52.238Z,223.43
2023-01-06T11:24:25.679Z,207.00
2023-01-06T11:27:18.108Z,218.98
2023-01-06T11:29:48.040Z,245.90
2023-01-06T11:32:30.950Z,234.23
2023-01-06T11:35:06.874Z,224.68
2023-01-06T11:37:44.681Z,236.68
2023-01-06T11:40:31.003Z,214.75
2023-01-06T11:43:13.323Z,223.15
2023-01-06T11:45:48.971Z,205.98
2023-01-06T11:48:20.484Z,235.32
2023-01-06T11:51:06.849Z,215.27
2023-01-06T11:53:36.647Z,240.13
2023-01-06T11:56:24.622Z,251.15
2023-01-06T11:59:03.021Z,253.82
2023-01-06T12:02:00.394Z,281.65
2023-01-06T12:04:49.102Z,266.08
2023-01-06T12:07:33.920Z,282.13
2023-01-06T12:10:11.857Z,253.93
2023-01-06T12:12:41.056Z,269.52
2023-01-06T12:15:18.911Z,264.35
2023-01-06T12:17:55.424Z,258.70
2023-01-06T12:20:45.120Z,250.13
2023-01-06T12:23:25.650Z,236.70
2023-01-06T12:26:03.011Z,248.82
2023-01-06T12:28:42.496Z,262.05
2023-01-06T12:31:51.656Z,252.00
2023-01-06T12:34:39.499Z,265.98
2023-01-06T12:37:11.523Z,281.08
2023-01-06T12:40:03.780Z,256.58
2023-01-06T12:42:48.439Z,260.57
2023-01-06T12:45:32.447Z,292.00
2023-01-06T12:48:08.718Z,292.73
2023-01-06T12:50:46.818Z,288.88
2023-01-06T12:53:21.157Z,305.17
2023-01-06T12:56:20.029Z,282.10
2023-01-06T12:58:59.777Z,272.05
2023-01-06T13:01:50.969Z,230.93
2023-01-06T13:04:41.424Z,223.13
2023-01-06T13:07:26.321Z,216.27
2023-01-06T13:10:04.318Z,186.18
2023-01-06T13:12:47.326Z,201.02
2023-01-06T13:15:16.545Z,200.45
2023-01-06T13:18:23.939Z,204.63
2023-01-06T13:21:14.811Z,203.07
2023-01-06T13:23:53.214Z,211.60
2023-01-06T13:26:30.831Z,218.32
2023-01-06T13:29:08.798Z,203.68
2023-01-06T13:32:01.958Z,229.68
2023-01-06T13:37:30.111Z,189.45
2023-01-06T13:40:01.138Z,195.98
2023-01-06T13:42:42.617Z,213.52
2023-01-06T13:45:26.127Z,228.93
2023-01-06T13:47:55.875Z,200.48
2023-01-06T13:50:27.481Z,217.70
2023-01-06T13:52:57.555Z,234.60
2023-01-06T13:55:39.931Z,218.23
2023-01-06T13:58:27.763Z,203.00
2023-01-06T14:01:17.361Z,198.02
2023-01-06T14:03:50.987Z,211.43
2023-01-06T14:06:26.318Z,210.77
2023-01-06T14:09:00.888Z,191.18
2023-01-06T14:11:34.036Z,213.93
2023-01-06T14:14:09.501Z,227.00
2023-01-06T14:16:48.338Z,225.65
2023-01-06T14:19:24.106Z,225.23
2023-01-06T14:21:57.326Z,226.93
2023-01-06T14:24:36.085Z,250.20
2023-01-06T14:27:08.208Z,230.38
2023-01-06T14:29:44.097Z,233.25
2023-01-06T14:32:36.244Z,234.40
2023-01-06T14:35:12.698Z,227.20
2023-01-06T14:37:52.687Z,260.10
2023-01-06T14:40:39.207Z,249.68
2023-01-06T14:43:26.701Z,217.85
2023-01-06T14:45:57.518Z,237.02
2023-01-06T14:48:30.284Z,220.52
2023-01-06T14:53:34.688Z,245.40
2023-01-06T14:56:06.201Z,206.15
2023-01-06T14:58:40.333Z,230.48
2023-01-06T15:01:24.332Z,251.85
2023-01-06T15:03:58.640Z,244.02
2023-01-06T15:06:29.750Z,249.80
2023-01-06T15:09:23.906Z,221.23
2023-01-06T15:11:53.522Z,227.30
2023-01-06T15:14:30.824Z,228.77
2023-01-06T15:17:04.722Z,205.88
2023-01-06T15:19:35.728Z,235.23
2023-01-06T15:22:09.781Z,227.55
2023-01-06T15:24:44.253Z,231.32
2023-01-06T15:27:16.799Z,222.25
2023-01-06T15:32:28.210Z,223.43
2023-01-06T15:35:00.421Z,225.45
2023-01-06T15:37:35.741Z,237.10
2023-01-06T15:40:07.274Z,234.93
2023-01-06T15:42:37.945Z,224.07
2023-01-06T15:45:08.085Z,225.90
2023-01-06T15:47:43.723Z,200.10
2023-01-06T15:50:22.571Z,243.43
2023-01-06T15:52:55.689Z,204.77
2023-01-06T15:55:44.177Z,232.27
2023-01-06T15:58:33.919Z,194.45
2023-01-06T16:01:05.046Z,210.27
2023-01-06T16:03:35.141Z,231.45
2023-01-06T16:06:12.383Z,238.25
2023-01-06T16:08:44.440Z,247.32
2023-01-06T16:11:38.289Z,292.52
2023-01-06T16:14:25.214Z,269.80
2023-01-06T16:16:55.716Z,262.90
2023-01-06T16:19:24.822Z,254.15
2023-01-06T16:21:55.864Z,262.80
2023-01-06T16:24:30.185Z,298.45
2023-01-06T16:27:07.385Z,277.27
2023-01-06T16:29:39.127Z,244.15
2023-01-06T16:32:30.148Z,302.85
2023-01-06T16:35:04.491Z,294.35
2023-01-06T16:37:36.934Z,244.35
2023-01-06T16:40:07.265Z,228.00
2023-01-06T16:42:46.144Z,236.82
2023-01-06T16:45:28.102Z,215.98
2023-01-06T16:47:58.006Z,250.50
2023-01-06T16:50:34.335Z,266.13
2023-01-06T16:53:11.048Z,253.23
2023-01-06T16:55:43.204Z,258.02
2023-01-06T16:58:21.629Z,274.80
2023-01-06T17:00:57.842Z,268.73
2023-01-06T17:04:12.166Z,263.45
2023-01-06T17:06:44.051Z,282.48
2023-01-06T17:09:23.238Z,293.80
2023-01-06T17:11:54.039Z,291.35
2023-01-06T17:14:25.316Z,291.08
2023-01-06T17:16:54.650Z,292.45
2023-01-06T17:19:29.534Z,268.80
2023-01-06T17:22:22.961Z,301.50
2023-01-06T17:24:57.345Z,294.05
2023-01-06T17:27:31.243Z,314.02
2023-01-06T17:30:08.777Z,322.33
2023-01-06T17:32:44.673Z,261.08
2023-01-06T17:35:29.481Z,305.23
2023-01-06T17:38:13.651Z,270.15
2023-01-06T17:40:48.094Z,275.85
2023-01-06T17:43:38.401Z,272.50
2023-01-06T17:46:37.563Z,304.05
2023-01-06T17:49:34.151Z,287.35
2023-01-06T17:52:16.120Z,285.70
2023-01-06T17:55:23.903Z,270.13
2023-01-06T17:57:57.208Z,267.42
2023-01-06T18:00:33.299Z,267.17
2023-01-06T18:03:16.151Z,264.80
2023-01-06T18:05:46.173Z,269.15
2023-01-06T18:08:21.283Z,260.95
2023-01-06T18:10:58.255Z,274.08
2023-01-06T18:13:42.985Z,277.65
2023-01-06T18:16:36.240Z,258.25
2023-01-06T18:19:33.200Z,246.30
2023-01-06T18:22:14.117Z,216.75
2023-01-06T18:24:44.203Z,219.45
2023-01-06T18:27:19.441Z,220.77
2023-01-06T18:29:49.440Z,233.88
2023-01-06T18:32:33.654Z,240.32
2023-01-06T18:35:10.291Z,219.50
2023-01-06T18:37:39.725Z,236.27
2023-01-06T18:40:20.110Z,635.00
2023-01-06T18:42:51.813Z,330.30
2023-01-06T18:45:24.137Z,246.50
2023-01-06T18:48:09.467Z,234.05
2023-01-06T18:50:44.772Z,237.95
2023-01-06T18:53:26.224Z,212.63
2023-01-06T18:55:59.854Z,220.07
2023-01-06T18:58:48.163Z,222.25
2023-01-06T19:01:23.405Z,229.80
2023-01-06T19:04:06.748Z,220.80
2023-01-06T19:06:46.128Z,217.65
2023-01-06T19:09:30.018Z,211.45
2023-01-06T19:12:11.415Z,215.70
2023-01-06T19:14:46.831Z,218.73
2023-01-06T19:17:41.655Z,214.43
2023-01-06T19:20:24.374Z,221.52
2023-01-06T19:25:36.567Z,212.13
2023-01-06T19:28:19.045Z,224.55
2023-01-06T19:31:00.449Z,213.18
2023-01-06T19:34:03.602Z,237.73
2023-01-06T19:39:28.152Z,227.60
2023-01-06T19:42:18.815Z,250.13
2023-01-06T19:44:51.711Z,253.57
2023-01-06T19:49:56.919Z,256.92
2023-01-06T19:52:42.691Z,278.30
2023-01-06T19:55:24.002Z,283.42
2023-01-06T19:57:59.884Z,288.40
2023-01-06T20:00:45.239Z,262.50
2023-01-06T20:03:26.204Z,271.98
2023-01-06T20:05:55.980Z,292.55
2023-01-06T20:08:25.160Z,258.98
2023-01-06T20:10:56.281Z,284.95
2023-01-06T20:13:25.816Z,382.50
2023-01-06T20:15:54.927Z,303.58
2023-01-06T20:18:23.962Z,315.52
2023-01-06T20:20:53.343Z,331.40
2023-01-06T20:23:22.563Z,303.67
2023-01-06T20:25:51.562Z,303.90
2023-01-06T20:28:20.752Z,295.88
2023-01-06T20:30:50.149Z,290.35
2023-01-06T20:33:19.534Z,293.83
2023-01-06T20:35:48.258Z,282.38
2023-01-06T20:38:17.745Z,285.35
2023-01-06T20:40:46.846Z,278.98
2023-01-06T20:43:16.354Z,293.15
2023-01-06T20:45:45.626Z,320.38
2023-01-06T20:48:14.809Z,295.20
2023-01-06T20:50:43.774Z,316.73
2023-01-06T20:53:13.104Z,374.92
2023-01-06T20:55:42.187Z,378.95
2023-01-06T20:58:11.223Z,397.98
2023-01-06T21:00:40.309Z,406.77
2023-01-06T21:03:09.399Z,374.23
2023-01-06T21:05:38.293Z,363.58
2023-01-06T21:08:07.536Z,334.30
2023-01-06T21:10:37.680Z,353.90
2023-01-06T21:13:07.320Z,348.48
2023-01-06T21:15:36.663Z,387.88
2023-01-06T21:18:05.927Z,417.40
2023-01-06T21:20:35.296Z,376.90
2023-01-06T21:23:04.134Z,327.15
2023-01-06T21:25:33.433Z,300.38
2023-01-06T21:28:02.688Z,305.05
2023-01-06T21:30:33.026Z,311.45
2023-01-06T21:33:02.321Z,285.70
2023-01-06T21:35:31.611Z,285.02
2023-01-06T21:38:00.877Z,279.35
2023-01-06T21:40:29.874Z,319.23
2023-01-06T21:43:11.457Z,305.80
2023-01-06T21:45:46.582Z,294.98
2023-01-06T21:48:16.080Z,302.05
2023-01-06T21:50:46.381Z,280.80
2023-01-06T21:53:16.089Z,277.75
2023-01-06T21:55:46.078Z,289.08
2023-01-06T21:58:15.042Z,294.55
2023-01-06T22:00:44.410Z,313.88
2023-01-06T22:03:14.062Z,325.52
2023-01-06T22:05:45.137Z,363.15
2023-01-06T22:08:14.369Z,353.70
2023-01-06T22:10:45.239Z,335.17
2023-01-06T22:13:17.843Z,340.25
2023-01-06T22:18:16.504Z,301.88
2023-01-06T22:20:46.200Z,302.02
2023-01-06T22:23:19.333Z,289.95
2023-01-06T22:25:48.993Z,354.52
2023-01-06T22:28:18.615Z,270.25
2023-01-06T22:30:48.162Z,291.42
2023-01-06T22:33:19.104Z,277.17
2023-01-06T22:35:48.615Z,276.73
2023-01-06T22:38:17.807Z,278.35
2023-01-06T22:40:48.333Z,282.23
2023-01-06T22:43:19.082Z,300.90
2023-01-06T22:45:55.514Z,284.92
2023-01-06T22:48:26.022Z,281.98
2023-01-06T22:51:00.311Z,311.50
2023-01-06T22:53:31.751Z,334.38
2023-01-06T22:56:06.258Z,278.00
2023-01-06T22:58:37.197Z,293.85
2023-01-06T23:01:07.972Z,269.10
2023-01-06T23:03:38.574Z,289.65
2023-01-06T23:06:11.178Z,270.55
2023-01-06T23:08:58.605Z,277.33
2023-01-06T23:11:29.702Z,235.75
2023-01-06T23:14:00.017Z,261.42
2023-01-06T23:16:30.924Z,237.02
2023-01-06T23:19:00.638Z,255.15
2023-01-06T23:21:32.407Z,250.88
2023-01-06T23:24:01.596Z,277.23
2023-01-06T23:26:34.995Z,294.15
2023-01-06T23:29:04.760Z,291.65
2023-01-06T23:31:37.435Z,295.52
2023-01-06T23:36:39.329Z,301.42
2023-01-06T23:39:10.465Z,296.33
2023-01-06T23:41:40.482Z,344.88
2023-01-06T23:44:12.852Z,311.40
2023-01-06T23:49:14.102Z,312.55
2023-01-06T23:51:43.782Z,327.30
2023-01-06T23:54:13.461Z,330.90
2023-01-06T23:56:43.371Z,335.52
2023-01-06T23:59:14.180Z,344.48
